createdAt,value
2018-07-14T00:00:12.666Z,20.10
2018-07-14T00:02:41.182Z,20.10
2018-07-14T00:05:09.605Z,20.00
2018-07-14T00:07:37.996Z,20.10
2018-07-14T00:10:06.595Z,20.10
2018-07-14T00:12:34.755Z,20.10
2018-07-14T00:15:03.105Z,20.00
2018-07-14T00:17:31.516Z,19.90
2018-07-14T00:19:59.803Z,20.00
2018-07-14T00:22:28.090Z,20.00
2018-07-14T00:24:56.370Z,19.90
2018-07-14T00:27:24.687Z,19.80
2018-07-14T00:29:52.984Z,19.90
2018-07-14T00:32:21.255Z,19.80
2018-07-14T00:34:49.534Z,19.80
2018-07-14T00:37:17.952Z,19.80
2018-07-14T00:39:46.280Z,19.70
2018-07-14T00:42:14.609Z,19.70
2018-07-14T00:44:42.922Z,19.50
2018-07-14T00:47:11.269Z,19.60
2018-07-14T00:49:39.559Z,19.50
2018-07-14T00:52:07.896Z,19.50
2018-07-14T00:54:36.260Z,19.50
2018-07-14T00:57:07.976Z,19.50
2018-07-14T00:59:36.355Z,19.50
2018-07-14T01:02:04.674Z,19.50
2018-07-14T01:04:32.942Z,19.40
2018-07-14T01:07:01.233Z,19.40
2018-07-14T01:09:29.521Z,19.40
2018-07-14T01:11:57.831Z,19.30
2018-07-14T01:14:26.129Z,19.30
2018-07-14T01:16:54.457Z,19.30
2018-07-14T01:19:22.822Z,19.30
2018-07-14T01:21:51.113Z,19.30
2018-07-14T01:24:19.384Z,19.30
2018-07-14T01:26:47.675Z,19.30
2018-07-14T01:29:16.130Z,19.20
2018-07-14T01:31:44.496Z,19.10
2018-07-14T01:34:12.788Z,19.10
2018-07-14T01:36:41.195Z,19.20
2018-07-14T01:39:09.913Z,19.20
2018-07-14T01:41:38.266Z,19.20
2018-07-14T01:44:06.590Z,19.20
2018-07-14T01:46:34.894Z,19.10
2018-07-14T01:49:03.220Z,19.10
2018-07-14T01:51:31.526Z,19.10
2018-07-14T01:53:59.854Z,19.00
2018-07-14T01:56:28.162Z,18.90
2018-07-14T01:58:56.623Z,18.90
2018-07-14T02:01:24.926Z,18.80
2018-07-14T02:03:53.237Z,18.90
2018-07-14T02:06:21.492Z,18.90
2018-07-14T02:08:49.817Z,18.80
2018-07-14T02:11:18.170Z,18.90
2018-07-14T02:13:46.572Z,18.90
2018-07-14T02:16:14.963Z,18.90
2018-07-14T02:18:44.244Z,18.90
2018-07-14T02:21:12.585Z,19.00
2018-07-14T02:23:40.986Z,18.90
2018-07-14T02:26:10.346Z,19.00
2018-07-14T02:28:38.707Z,19.00
2018-07-14T02:31:07.010Z,18.90
2018-07-14T02:33:35.316Z,19.00
2018-07-14T02:36:03.738Z,19.00
2018-07-14T02:38:32.248Z,18.80
2018-07-14T02:41:00.711Z,18.80
2018-07-14T02:43:28.988Z,18.70
2018-07-14T02:45:57.371Z,18.70
2018-07-14T02:48:25.681Z,18.80
2018-07-14T02:50:53.924Z,18.70
2018-07-14T02:53:22.356Z,18.80
2018-07-14T02:55:50.706Z,18.80
2018-07-14T02:58:19.067Z,18.70
2018-07-14T03:00:47.362Z,18.70
2018-07-14T03:03:15.668Z,18.70
2018-07-14T03:05:43.931Z,18.70
2018-07-14T03:08:12.303Z,18.70
2018-07-14T03:10:40.660Z,18.70
2018-07-14T03:13:08.952Z,18.60
2018-07-14T03:15:37.256Z,18.70
2018-07-14T03:18:05.770Z,18.60
2018-07-14T03:20:34.114Z,18.60
2018-07-14T03:23:02.453Z,18.60
2018-07-14T03:25:30.784Z,18.70
2018-07-14T03:27:59.060Z,18.70
2018-07-14T03:30:27.368Z,18.70
2018-07-14T03:32:55.617Z,18.70
2018-07-14T03:35:24.606Z,18.60
2018-07-14T03:37:52.938Z,18.60
2018-07-14T03:40:21.264Z,18.60
2018-07-14T03:42:49.629Z,18.60
2018-07-14T03:45:17.962Z,18.60
2018-07-14T03:47:46.298Z,18.50
2018-07-14T03:50:14.577Z,18.50
2018-07-14T03:52:43.058Z,18.50
2018-07-14T03:55:11.520Z,18.50
2018-07-14T03:57:39.949Z,18.50
2018-07-14T04:00:08.312Z,18.50
2018-07-14T04:02:36.577Z,18.50
2018-07-14T04:05:05.349Z,18.50
2018-07-14T04:07:33.729Z,18.50
2018-07-14T04:10:02.078Z,18.50
2018-07-14T04:12:30.432Z,18.50
2018-07-14T04:14:58.808Z,18.40
2018-07-14T04:17:27.159Z,18.50
2018-07-14T04:19:55.565Z,18.50
2018-07-14T04:22:23.959Z,18.50
2018-07-14T04:24:52.330Z,18.50
2018-07-14T04:27:21.528Z,18.50
2018-07-14T04:29:49.874Z,18.50
2018-07-14T04:32:18.181Z,18.50
2018-07-14T04:34:46.711Z,18.50
2018-07-14T04:37:15.007Z,18.50
2018-07-14T04:39:43.340Z,18.50
2018-07-14T04:42:11.649Z,18.50
2018-07-14T04:44:39.968Z,18.50
2018-07-14T04:47:08.346Z,18.50
2018-07-14T04:49:36.698Z,18.50
2018-07-14T04:52:04.980Z,18.60
2018-07-14T04:54:33.299Z,18.60
2018-07-14T04:57:01.594Z,18.60
2018-07-14T04:59:29.895Z,18.60
2018-07-14T05:01:58.238Z,18.60
2018-07-14T05:04:26.560Z,18.70
2018-07-14T05:06:54.885Z,18.80
2018-07-14T05:09:23.261Z,18.90
2018-07-14T05:11:51.579Z,19.00
2018-07-14T05:14:19.979Z,18.90
2018-07-14T05:16:48.249Z,19.00
2018-07-14T05:19:16.531Z,19.10
2018-07-14T05:21:44.856Z,19.10
2018-07-14T05:26:41.340Z,19.20
2018-07-14T05:29:09.715Z,19.30
2018-07-14T05:31:38.423Z,19.40
2018-07-14T05:34:06.832Z,19.50
2018-07-14T05:36:35.148Z,19.50
2018-07-14T05:39:03.848Z,19.70
2018-07-14T05:41:32.130Z,19.70
2018-07-14T05:44:00.467Z,19.80
2018-07-14T05:46:28.806Z,20.00
2018-07-14T05:48:57.182Z,20.00
2018-07-14T05:51:25.438Z,20.20
2018-07-14T05:53:53.729Z,20.30
2018-07-14T05:56:22.050Z,20.40
2018-07-14T05:58:50.400Z,20.40
2018-07-14T06:01:18.721Z,20.50
2018-07-14T06:03:47.028Z,20.60
2018-07-14T06:06:15.452Z,20.70
2018-07-14T06:08:43.833Z,20.80
2018-07-14T06:11:13.231Z,20.80
2018-07-14T06:13:41.561Z,20.90
2018-07-14T06:16:10.129Z,20.90
2018-07-14T06:18:38.471Z,20.80
2018-07-14T06:21:06.878Z,21.00
2018-07-14T06:23:35.264Z,21.10
2018-07-14T06:26:04.399Z,21.20
2018-07-14T06:28:32.882Z,21.30
2018-07-14T06:31:01.423Z,21.30
2018-07-14T06:33:29.752Z,21.40
2018-07-14T06:35:58.062Z,21.50
2018-07-14T06:38:26.573Z,21.50
2018-07-14T06:40:54.912Z,21.60
2018-07-14T06:43:23.277Z,21.70
2018-07-14T06:45:51.763Z,21.70
2018-07-14T06:48:20.150Z,21.80
2018-07-14T06:50:48.401Z,22.00
2018-07-14T06:53:16.744Z,22.10
2018-07-14T06:55:45.053Z,22.20
2018-07-14T06:58:13.456Z,22.20
2018-07-14T07:00:41.765Z,22.30
2018-07-14T07:03:10.064Z,22.40
2018-07-14T07:05:38.446Z,22.40
2018-07-14T07:08:07.114Z,22.50
2018-07-14T07:10:35.507Z,22.50
2018-07-14T07:13:03.997Z,22.70
2018-07-14T07:15:32.310Z,22.70
2018-07-14T07:18:00.655Z,22.80
2018-07-14T07:20:29.125Z,22.80
2018-07-14T07:22:57.466Z,22.90
2018-07-14T07:25:25.987Z,23.00
2018-07-14T07:27:54.301Z,23.00
2018-07-14T07:30:22.606Z,23.10
2018-07-14T07:35:18.941Z,23.20
2018-07-14T07:37:47.316Z,23.20
2018-07-14T07:40:15.579Z,23.10
2018-07-14T07:42:43.993Z,23.20
2018-07-14T07:45:12.452Z,23.40
2018-07-14T07:47:40.725Z,23.50
2018-07-14T07:50:09.179Z,23.60
2018-07-14T07:52:37.434Z,23.70
2018-07-14T07:55:05.768Z,23.80
2018-07-14T07:57:34.175Z,23.80
2018-07-14T08:00:02.498Z,23.60
2018-07-14T08:02:30.954Z,23.70
2018-07-14T08:04:59.240Z,23.90
2018-07-14T08:07:27.582Z,23.90
2018-07-14T08:09:55.937Z,24.00
2018-07-14T08:12:24.282Z,24.10
2018-07-14T08:17:21.357Z,24.20
2018-07-14T08:19:49.916Z,24.30
2018-07-14T08:22:19.270Z,24.40
2018-07-14T08:24:47.561Z,24.50
2018-07-14T08:27:15.873Z,24.60
2018-07-14T08:29:44.209Z,24.60
2018-07-14T08:34:40.628Z,24.70
2018-07-14T08:37:08.984Z,24.80
2018-07-14T08:39:38.051Z,25.00
2018-07-14T08:42:06.658Z,25.00
2018-07-14T08:44:34.996Z,25.00
2018-07-14T08:47:04.232Z,25.10
2018-07-14T08:49:32.527Z,25.20
2018-07-14T08:52:03.971Z,25.30
2018-07-14T08:54:32.307Z,25.30
2018-07-14T08:57:00.619Z,25.40
2018-07-14T08:59:28.888Z,25.40
2018-07-14T09:01:57.304Z,25.30
2018-07-14T09:04:25.699Z,25.40
2018-07-14T09:06:53.990Z,25.50
2018-07-14T09:11:50.769Z,25.80
2018-07-14T09:14:19.091Z,25.70
2018-07-14T09:16:47.399Z,25.70
2018-07-14T09:19:15.663Z,25.90
2018-07-14T09:21:44.135Z,26.00
2018-07-14T09:24:12.500Z,26.20
2018-07-14T09:26:40.916Z,26.20
2018-07-14T09:29:09.329Z,26.10
2018-07-14T09:31:38.063Z,26.30
2018-07-14T09:34:06.412Z,26.30
2018-07-14T09:36:34.986Z,26.50
2018-07-14T09:39:04.597Z,26.70
2018-07-14T09:41:32.875Z,26.80
2018-07-14T09:44:01.222Z,26.80
2018-07-14T09:46:29.535Z,26.80
2018-07-14T09:48:57.971Z,26.70
2018-07-14T09:51:26.368Z,26.70
2018-07-14T09:53:54.715Z,26.60
2018-07-14T09:56:23.015Z,26.60
2018-07-14T09:58:51.475Z,26.40
2018-07-14T10:01:19.862Z,26.10
2018-07-14T10:03:48.203Z,26.00
2018-07-14T10:06:16.543Z,25.80
2018-07-14T10:08:44.840Z,25.70
2018-07-14T10:11:13.157Z,25.60
2018-07-14T10:13:41.534Z,25.60
2018-07-14T10:16:09.877Z,25.50
2018-07-14T10:18:38.151Z,25.60
2018-07-14T10:21:06.455Z,25.60
2018-07-14T10:23:34.746Z,25.70
2018-07-14T10:26:02.991Z,25.70
2018-07-14T10:28:31.339Z,25.80
2018-07-14T10:30:59.681Z,26.00
2018-07-14T10:33:28.087Z,26.00
2018-07-14T10:35:56.408Z,26.10
2018-07-14T10:38:24.726Z,26.20
2018-07-14T10:40:53.076Z,26.20
2018-07-14T10:43:21.786Z,26.10
2018-07-14T10:45:50.104Z,26.10
2018-07-14T10:48:18.360Z,26.10
2018-07-14T10:50:46.602Z,26.20
2018-07-14T10:53:14.967Z,26.30
2018-07-14T10:55:43.327Z,26.40
2018-07-14T10:58:11.655Z,26.40
2018-07-14T11:00:47.591Z,26.40
2018-07-14T11:03:15.902Z,26.50
2018-07-14T11:08:12.257Z,26.90
2018-07-14T11:10:40.689Z,27.10
2018-07-14T11:13:08.963Z,26.80
2018-07-14T11:15:37.291Z,27.00
2018-07-14T11:18:05.590Z,27.20
2018-07-14T11:20:33.960Z,27.20
2018-07-14T11:23:02.268Z,27.20
2018-07-14T11:25:30.593Z,27.20
2018-07-14T11:27:58.892Z,27.30
2018-07-14T11:30:27.216Z,27.40
2018-07-14T11:32:55.808Z,27.60
2018-07-14T11:35:25.182Z,27.80
2018-07-14T11:37:53.739Z,27.80
2018-07-14T11:40:22.113Z,27.70
2018-07-14T11:42:50.477Z,27.50
2018-07-14T11:45:18.815Z,27.30
2018-07-14T11:47:48.245Z,27.20
2018-07-14T11:50:16.657Z,27.10
2018-07-14T11:52:45.006Z,27.00
2018-07-14T11:55:13.322Z,26.90
2018-07-14T11:57:41.592Z,26.90
2018-07-14T12:00:10.083Z,27.00
2018-07-14T12:02:38.371Z,27.00
2018-07-14T12:05:06.717Z,27.10
2018-07-14T12:07:35.018Z,27.10
2018-07-14T12:10:03.309Z,27.20
2018-07-14T12:12:31.708Z,27.40
2018-07-14T12:15:00.033Z,27.60
2018-07-14T12:17:28.348Z,27.60
2018-07-14T12:19:56.677Z,27.60
2018-07-14T12:22:25.066Z,27.80
2018-07-14T12:24:53.238Z,27.80
2018-07-14T12:27:21.538Z,28.00
2018-07-14T12:29:50.011Z,28.00
2018-07-14T12:32:18.403Z,28.00
2018-07-14T12:34:46.877Z,28.00
2018-07-14T12:37:15.201Z,27.90
2018-07-14T12:39:43.459Z,28.00
2018-07-14T12:42:11.800Z,28.10
2018-07-14T12:44:40.173Z,28.10
2018-07-14T12:47:08.473Z,28.30
2018-07-14T12:49:36.788Z,28.30
2018-07-14T12:52:05.256Z,28.50
2018-07-14T12:54:33.553Z,28.60
2018-07-14T12:57:01.898Z,28.50
2018-07-14T12:59:30.492Z,28.70
2018-07-14T13:01:58.814Z,28.70
2018-07-14T13:09:23.490Z,28.50
2018-07-14T13:11:51.799Z,28.50
2018-07-14T13:14:20.129Z,28.40
2018-07-14T13:16:48.405Z,28.40
2018-07-14T13:19:16.800Z,28.30
2018-07-14T13:21:45.077Z,28.10
2018-07-14T13:24:13.396Z,28.10
2018-07-14T13:26:41.730Z,28.30
2018-07-14T13:29:10.074Z,28.50
2018-07-14T13:31:38.364Z,28.60
2018-07-14T13:34:07.039Z,28.70
2018-07-14T13:36:35.387Z,28.90
2018-07-14T13:41:32.834Z,28.80
2018-07-14T13:44:01.135Z,28.60
2018-07-14T13:46:29.570Z,28.30
2018-07-14T13:48:58.090Z,28.30
2018-07-14T13:51:26.364Z,28.20
2018-07-14T13:53:54.694Z,28.10
2018-07-14T13:56:23.134Z,27.90
2018-07-14T13:58:51.432Z,27.80
2018-07-14T14:01:19.729Z,27.80
2018-07-14T14:03:48.013Z,27.80
2018-07-14T14:06:16.378Z,27.90
2018-07-14T14:08:44.681Z,28.00
2018-07-14T14:11:13.011Z,28.10
2018-07-14T14:13:41.441Z,28.00
2018-07-14T14:16:09.927Z,27.90
2018-07-14T14:18:38.238Z,27.80
2018-07-14T14:23:34.699Z,28.10
2018-07-14T14:26:03.066Z,28.40
2018-07-14T14:28:31.411Z,28.60
2018-07-14T14:31:00.063Z,28.60
2018-07-14T14:33:28.390Z,28.60
2018-07-14T14:35:56.823Z,28.80
2018-07-14T14:38:25.156Z,29.00
2018-07-14T14:40:53.513Z,29.10
2018-07-14T14:43:21.961Z,28.90
2018-07-14T14:45:50.313Z,29.00
2018-07-14T14:48:18.605Z,28.90
2018-07-14T14:50:46.905Z,28.70
2018-07-14T14:53:15.366Z,28.50
2018-07-14T14:55:43.725Z,28.50
2018-07-14T14:58:12.124Z,28.50
2018-07-14T15:00:40.444Z,28.60
2018-07-14T15:03:08.759Z,28.60
2018-07-14T15:05:37.129Z,28.60
2018-07-14T15:08:05.475Z,28.60
2018-07-14T15:10:33.787Z,28.70
2018-07-14T15:13:02.082Z,29.00
2018-07-14T15:15:30.414Z,29.00
2018-07-14T15:17:58.864Z,29.00
2018-07-14T15:20:27.207Z,29.00
2018-07-14T15:22:55.667Z,29.00
2018-07-14T15:25:24.135Z,29.10
2018-07-14T15:27:52.456Z,29.00
2018-07-14T15:30:20.796Z,28.90
2018-07-14T15:32:49.132Z,29.00
2018-07-14T15:40:13.538Z,29.20
2018-07-14T15:42:42.127Z,29.30
2018-07-14T15:45:10.507Z,29.40
2018-07-14T15:47:39.001Z,29.40
2018-07-14T15:50:07.586Z,28.90
2018-07-14T15:52:36.123Z,29.00
2018-07-14T15:55:04.580Z,29.00
2018-07-14T15:57:32.997Z,29.20
2018-07-14T16:00:02.251Z,29.30
2018-07-14T16:02:30.663Z,29.50
2018-07-14T16:04:58.970Z,29.70
2018-07-14T16:07:27.351Z,29.70
2018-07-14T16:09:55.793Z,29.60
2018-07-14T16:12:24.272Z,29.50
2018-07-14T16:14:52.644Z,29.50
2018-07-14T16:17:20.953Z,29.30
2018-07-14T16:19:49.276Z,29.20
2018-07-14T16:22:17.602Z,29.10
2018-07-14T16:24:45.990Z,29.00
2018-07-14T16:27:14.397Z,29.20
2018-07-14T16:29:42.760Z,29.60
2018-07-14T16:32:11.093Z,30.20
2018-07-14T16:34:39.670Z,30.70
2018-07-14T16:37:07.984Z,31.10
2018-07-14T16:39:36.380Z,31.10
2018-07-14T16:42:05.326Z,30.80
2018-07-14T16:44:33.865Z,30.30
2018-07-14T16:47:02.407Z,30.20
2018-07-14T16:49:30.991Z,30.60
2018-07-14T16:51:59.537Z,31.30
2018-07-14T16:54:28.099Z,31.60
2018-07-14T16:59:50.155Z,32.20
2018-07-14T17:02:18.575Z,32.20
2018-07-14T17:04:47.260Z,32.00
2018-07-14T17:07:15.773Z,31.70
2018-07-14T17:09:44.294Z,31.80
2018-07-14T17:12:12.768Z,32.10
2018-07-14T17:14:41.273Z,31.70
2018-07-14T17:17:10.112Z,31.00
2018-07-14T17:19:38.484Z,30.10
2018-07-14T17:22:08.731Z,30.40
2018-07-14T17:24:37.061Z,31.20
2018-07-14T17:27:05.496Z,32.10
2018-07-14T17:29:33.918Z,32.80
2018-07-14T17:32:02.325Z,32.50
2018-07-14T17:34:30.669Z,31.90
2018-07-14T17:36:59.020Z,31.40
2018-07-14T17:39:27.378Z,31.00
2018-07-14T17:41:55.689Z,30.40
2018-07-14T17:44:24.064Z,29.90
2018-07-14T17:46:52.375Z,29.30
2018-07-14T17:49:20.768Z,28.80
2018-07-14T17:51:49.099Z,28.50
2018-07-14T17:54:18.485Z,28.30
2018-07-14T17:59:16.426Z,28.00
2018-07-14T18:01:44.872Z,27.90
2018-07-14T18:04:13.227Z,27.70
2018-07-14T18:06:41.592Z,27.60
2018-07-14T18:09:10.797Z,27.40
2018-07-14T18:11:39.270Z,27.30
2018-07-14T18:14:07.567Z,27.30
2018-07-14T18:16:35.964Z,27.20
2018-07-14T18:19:04.302Z,27.20
2018-07-14T18:21:32.679Z,27.10
2018-07-14T18:24:00.999Z,27.10
2018-07-14T18:26:29.362Z,27.10
2018-07-14T18:28:57.590Z,27.00
2018-07-14T18:31:25.926Z,26.90
2018-07-14T18:33:54.371Z,26.80
2018-07-14T18:36:22.877Z,26.70
2018-07-14T18:38:51.345Z,26.60
2018-07-14T18:41:19.676Z,26.50
2018-07-14T18:43:48.075Z,26.40
2018-07-14T18:46:16.347Z,26.20
2018-07-14T18:48:44.903Z,26.20
2018-07-14T18:51:16.611Z,26.10
2018-07-14T18:53:45.375Z,25.90
2018-07-14T18:56:13.751Z,25.80
2018-07-14T18:58:42.067Z,25.60
2018-07-14T19:01:11.302Z,25.40
2018-07-14T19:03:39.732Z,25.30
2018-07-14T19:06:08.084Z,25.20
2018-07-14T19:08:36.441Z,25.10
2018-07-14T19:11:04.751Z,25.10
2018-07-14T19:13:33.057Z,25.00
2018-07-14T19:16:01.412Z,24.90
2018-07-14T19:18:29.762Z,24.80
2018-07-14T19:20:58.083Z,24.60
2018-07-14T19:23:26.455Z,24.60
2018-07-14T19:25:54.897Z,24.40
2018-07-14T19:28:23.272Z,24.40
2018-07-14T19:30:51.711Z,24.40
2018-07-14T19:33:20.245Z,24.40
2018-07-14T19:35:48.548Z,24.30
2018-07-14T19:38:16.846Z,24.20
2018-07-14T19:40:45.144Z,24.20
2018-07-14T19:43:13.553Z,24.10
2018-07-14T19:45:42.067Z,24.10
2018-07-14T19:48:10.503Z,24.00
2018-07-14T19:50:38.836Z,23.90
2018-07-14T19:53:07.361Z,23.80
2018-07-14T19:55:35.878Z,23.70
2018-07-14T19:58:04.496Z,23.50
2018-07-14T20:00:33.069Z,23.40
2018-07-14T20:03:01.351Z,23.30
2018-07-14T20:05:29.712Z,23.20
2018-07-14T20:07:58.060Z,23.20
2018-07-14T20:10:26.446Z,23.20
2018-07-14T20:12:54.994Z,23.20
2018-07-14T20:15:23.399Z,23.20
2018-07-14T20:17:51.803Z,23.20
2018-07-14T20:20:20.188Z,23.10
2018-07-14T20:22:48.474Z,23.10
2018-07-14T20:25:16.873Z,23.10
2018-07-14T20:29:11.709Z,22.80
2018-07-14T20:31:40.088Z,22.80
2018-07-14T20:34:08.717Z,22.80
2018-07-14T20:36:37.017Z,22.80
2018-07-14T20:39:06.257Z,22.70
2018-07-14T20:41:34.939Z,22.80
2018-07-14T20:44:03.464Z,22.70
2018-07-14T20:46:31.882Z,22.70
2018-07-14T20:49:00.238Z,22.70
2018-07-14T20:51:28.625Z,22.60
2018-07-14T20:53:57.191Z,22.50
2018-07-14T20:56:25.516Z,22.40
2018-07-14T20:58:53.845Z,22.40
2018-07-14T21:01:22.144Z,22.50
2018-07-14T21:03:50.478Z,22.40
2018-07-14T21:06:18.935Z,22.30
2018-07-14T21:08:47.257Z,22.30
2018-07-14T21:11:15.612Z,22.20
2018-07-14T21:13:43.951Z,22.20
2018-07-14T21:16:14.250Z,22.20
2018-07-14T21:18:42.521Z,22.10
2018-07-14T21:21:10.886Z,22.10
2018-07-14T21:23:39.327Z,22.20
2018-07-14T21:26:08.664Z,22.10
2018-07-14T21:28:37.058Z,22.20
2018-07-14T21:31:05.655Z,22.10
2018-07-14T21:33:34.263Z,22.00
2018-07-14T21:36:02.690Z,22.00
2018-07-14T21:38:31.046Z,21.80
2018-07-14T21:40:59.427Z,21.90
2018-07-14T21:43:27.891Z,21.80
2018-07-14T21:45:56.160Z,21.80
2018-07-14T21:48:24.748Z,21.80
2018-07-14T21:50:53.044Z,21.80
2018-07-14T21:53:21.320Z,21.70
2018-07-14T21:55:49.638Z,21.70
2018-07-14T21:58:18.014Z,21.60
2018-07-14T22:00:51.763Z,21.70
2018-07-14T22:03:20.083Z,21.70
2018-07-14T22:05:48.443Z,21.70
2018-07-14T22:08:16.752Z,21.60
2018-07-14T22:10:45.070Z,21.60
2018-07-14T22:13:14.478Z,21.60
2018-07-14T22:15:42.905Z,21.50
2018-07-14T22:18:11.184Z,21.40
2018-07-14T22:20:39.550Z,21.30
2018-07-14T22:23:08.126Z,21.30
2018-07-14T22:25:36.409Z,21.30
2018-07-14T22:28:04.754Z,21.30
2018-07-14T22:30:33.074Z,21.20
2018-07-14T22:33:01.406Z,21.20
2018-07-14T22:35:29.794Z,21.00
2018-07-14T22:37:58.139Z,20.90
2018-07-14T22:40:26.518Z,20.80
2018-07-14T22:42:54.822Z,20.60
2018-07-14T22:45:23.124Z,20.80
2018-07-14T22:47:51.422Z,20.90
2018-07-14T22:50:22.894Z,20.80
2018-07-14T22:52:51.354Z,20.90
2018-07-14T22:55:19.645Z,21.00
2018-07-14T22:57:47.971Z,21.00
2018-07-14T23:00:16.289Z,20.90
2018-07-14T23:02:44.577Z,20.90
2018-07-14T23:05:13.153Z,20.70
2018-07-14T23:07:41.526Z,20.80
2018-07-14T23:10:09.813Z,20.80
2018-07-14T23:12:38.115Z,20.80
2018-07-14T23:15:06.460Z,20.70
2018-07-14T23:17:34.849Z,20.70
2018-07-14T23:20:03.166Z,20.60
2018-07-14T23:22:31.497Z,20.50
2018-07-14T23:24:59.872Z,20.50
2018-07-14T23:27:28.163Z,20.50
2018-07-14T23:29:56.457Z,20.50
2018-07-14T23:32:24.835Z,20.50
2018-07-14T23:34:53.142Z,20.50
2018-07-14T23:37:21.425Z,20.40
2018-07-14T23:39:49.718Z,20.20
2018-07-14T23:42:18.157Z,20.30
2018-07-14T23:44:46.476Z,20.10
2018-07-14T23:47:14.789Z,20.10
2018-07-14T23:49:43.128Z,20.30
2018-07-14T23:52:11.407Z,20.30
2018-07-14T23:54:39.673Z,20.30
2018-07-14T23:59:11.559Z,20.30
